logo
Search for airport 
image banner adimage banner adimage banner ad
image banner ad

OPKH - Khuzdar

Located in Khuzdar, Pakistan

ICAO - OPKH, IATA - KDD

Data provided by Airmate  

General information

Coordinates: N27°47'34" E66°38'35"
Elevation is 4012 feet MSL.
 
View others Airports in Balochistan

Operational data

Special qualification required
Current time UTC:
Current local time:
Weather at : - ( 0 km )
METAR: CZBF 130537Z AUTO 16004KT 130V200 5SM -RA BR BKN007 OVC013 13/13 A2956 RMK SLP015 DENSITY ALT 400FT
View NOTAMs / SUP AIP / TFR affecting this airport [VIEW]
Communications frequencies: [VIEW]

Runways:

RWY identifierQFULength (ft)Width (ft)SurfaceLDA (ft)
12117°600198UNK
30297°600198UNK

Airport contact information

Address: Khuzdar Pakistan

Satellite view of OPKH